Time;durP1;ratioP1;P1;durP2;ratioP2;P2;SDS_P1;SDS_P2;PMS_P1;PMS_P2;Temp;Humidity;BMP_temperature;BMP_pressure;BME280_temperature;BME280_humidity;BME280_pressure;Samples;Min_cycle;Max_cycle;Signal;HPM_P1;HPM_P2
2023/09/24 00:01:59;;;;;;;;;;;12.00;99.90;;;;;;7324476;19;9235;-81
2023/09/24 00:04:28;;;;;;;;;;;12.00;99.90;;;;;;7322271;19;9228;-81
2023/09/24 00:06:58;;;;;;;;;;;12.00;99.90;;;;;;7322169;19;9233;-81
2023/09/24 00:09:27;;;;;;;;;;;11.90;99.90;;;;;;7322126;19;9541;-81
2023/09/24 00:11:57;;;;;;;;;;;11.90;99.90;;;;;;7321883;19;9146;-81
2023/09/24 00:14:26;;;;;;;;;;;11.90;99.90;;;;;;7320696;19;9245;-81
2023/09/24 00:16:55;;;;;;;;;;;11.90;99.90;;;;;;7321715;19;9187;-81
2023/09/24 00:19:27;;;;;;;;;;;11.80;99.90;;;;;;7320662;19;9560;-81
2023/09/24 00:21:57;;;;;;;;;;;11.80;99.90;;;;;;7321345;19;9188;-81
2023/09/24 00:24:26;;;;;;;;;;;11.80;99.90;;;;;;7318802;19;9170;-82
2023/09/24 00:26:55;;;;;;;;;;;11.80;99.90;;;;;;7320373;19;9349;-81
2023/09/24 00:29:24;;;;;;;;;;;11.80;99.90;;;;;;7319935;19;9251;-81
2023/09/24 00:31:53;;;;;;;;;;;11.90;99.90;;;;;;7319964;19;9421;-81
2023/09/24 00:34:22;;;;;;;;;;;11.90;99.90;;;;;;7320564;19;9297;-81
2023/09/24 00:36:54;;;;;;;;;;;11.90;99.90;;;;;;7320768;19;10545;-82
2023/09/24 00:39:23;;;;;;;;;;;11.90;99.90;;;;;;7320522;19;9275;-82
2023/09/24 00:41:52;;;;;;;;;;;11.90;99.90;;;;;;7320284;19;9202;-81
2023/09/24 00:44:22;;;;;;;;;;;12.00;99.90;;;;;;7319904;19;9185;-81
2023/09/24 00:46:51;;;;;;;;;;;12.00;99.90;;;;;;7319014;19;9287;-81
2023/09/24 00:49:20;;;;;;;;;;;12.00;99.90;;;;;;7320093;19;9491;-81
2023/09/24 00:51:52;;;;;;;;;;;12.00;99.90;;;;;;7319819;19;9226;-81
2023/09/24 00:54:25;;;;;;;;;;;12.10;99.90;;;;;;7317857;19;9167;-81
2023/09/24 00:56:58;;;;;;;;;;;12.10;99.90;;;;;;7318872;19;9183;-81
2023/09/24 00:59:30;;;;;;;;;;;12.10;99.90;;;;;;7319790;19;9185;-81
2023/09/24 01:02:01;;;;;;;;;;;12.10;99.90;;;;;;7319715;19;9395;-81
2023/09/24 01:04:30;;;;;;;;;;;12.10;99.90;;;;;;7318842;19;9700;-80
2023/09/24 01:07:00;;;;;;;;;;;12.10;99.90;;;;;;7320789;19;8944;-81
2023/09/24 01:09:31;;;;;;;;;;;12.00;99.90;;;;;;7326014;19;9274;-81
2023/09/24 01:12:03;;;;;;;;;;;11.90;99.90;;;;;;7327289;19;10345;-81
2023/09/24 01:14:32;;;;;;;;;;;11.90;99.90;;;;;;7325713;19;9180;-81
2023/09/24 01:17:01;;;;;;;;;;;11.90;99.90;;;;;;7326860;19;9109;-80
2023/09/24 01:19:34;;;;;;;;;;;11.90;99.90;;;;;;7324647;19;9116;-81
2023/09/24 01:22:06;;;;;;;;;;;11.90;99.90;;;;;;7326275;19;9230;-81
2023/09/24 01:24:35;;;;;;;;;;;11.90;99.90;;;;;;7325421;19;8944;-81
2023/09/24 01:27:04;;;;;;;;;;;11.90;99.90;;;;;;7323767;19;9199;-81
2023/09/24 01:29:35;;;;;;;;;;;11.90;99.90;;;;;;7325149;19;9234;-81
2023/09/24 01:32:06;;;;;;;;;;;11.90;99.90;;;;;;7325779;19;9584;-81
2023/09/24 01:34:35;;;;;;;;;;;11.80;99.90;;;;;;7325936;19;9206;-81
2023/09/24 01:37:09;;;;;;;;;;;11.80;99.90;;;;;;7324100;19;11060;-81
2023/09/24 01:39:38;;;;;;;;;;;11.80;99.90;;;;;;7325445;19;9442;-81
2023/09/24 01:42:08;;;;;;;;;;;11.80;99.90;;;;;;7325066;19;9285;-81
2023/09/24 01:44:36;;;;;;;;;;;11.80;99.90;;;;;;7325207;19;9186;-80
2023/09/24 01:47:06;;;;;;;;;;;11.70;99.90;;;;;;7325341;19;9253;-80
2023/09/24 01:49:35;;;;;;;;;;;11.70;99.90;;;;;;7326021;19;9281;-81
2023/09/24 01:52:07;;;;;;;;;;;11.70;99.90;;;;;;7324325;19;9414;-80
2023/09/24 01:54:38;;;;;;;;;;;11.60;99.90;;;;;;7323816;19;9597;-81
2023/09/24 01:57:07;;;;;;;;;;;11.60;99.90;;;;;;7322026;19;9267;-81
2023/09/24 01:59:36;;;;;;;;;;;11.60;99.90;;;;;;7324921;19;9456;-81
2023/09/24 02:02:06;;;;;;;;;;;11.60;99.90;;;;;;7324840;19;9231;-81
2023/09/24 02:04:37;;;;;;;;;;;11.50;99.90;;;;;;7324165;19;9689;-81
2023/09/24 02:07:08;;;;;;;;;;;11.50;99.90;;;;;;7325407;19;9472;-82
2023/09/24 02:09:38;;;;;;;;;;;11.40;99.90;;;;;;7325459;19;9653;-82
2023/09/24 02:12:08;;;;;;;;;;;11.40;99.90;;;;;;7325140;19;8944;-82
2023/09/24 02:14:57;;;;;;;;;;;11.30;99.90;;;;;;7324433;19;9505;-82
2023/09/24 02:17:26;;;;;;;;;;;11.20;99.90;;;;;;7325407;19;9194;-82
2023/09/24 02:19:57;;;;;;;;;;;11.10;99.90;;;;;;7326430;19;9189;-81
2023/09/24 02:22:48;;;;;;;;;;;11.10;99.90;;;;;;7323919;19;9526;-82
2023/09/24 02:25:18;;;;;;;;;;;11.00;99.90;;;;;;7322831;19;9748;-81
2023/09/24 02:27:48;;;;;;;;;;;11.00;99.90;;;;;;7324476;19;9490;-81
2023/09/24 02:30:18;;;;;;;;;;;10.90;99.90;;;;;;7324012;19;10162;-81
2023/09/24 02:32:48;;;;;;;;;;;10.90;99.90;;;;;;7323736;19;9465;-82
2023/09/24 02:35:18;;;;;;;;;;;10.80;99.90;;;;;;7325288;19;9435;-82
2023/09/24 02:37:51;;;;;;;;;;;10.80;99.90;;;;;;7324523;19;9475;-82
2023/09/24 02:40:26;;;;;;;;;;;10.60;99.90;;;;;;7324306;19;9000;-82
2023/09/24 02:42:56;;;;;;;;;;;10.50;99.90;;;;;;7323704;19;9313;-82
2023/09/24 02:45:27;;;;;;;;;;;10.50;99.90;;;;;;7323149;19;9293;-82
2023/09/24 02:47:56;;;;;;;;;;;10.40;99.90;;;;;;7324372;19;9396;-82
2023/09/24 02:50:28;;;;;;;;;;;10.40;99.90;;;;;;7325062;19;9158;-82
2023/09/24 02:53:02;;;;;;;;;;;10.40;99.90;;;;;;7323161;19;10170;-82
2023/09/24 02:55:33;;;;;;;;;;;10.40;99.90;;;;;;7318347;19;10678;-82
2023/09/24 02:58:03;;;;;;;;;;;10.50;99.90;;;;;;7323791;19;9252;-82
2023/09/24 03:00:35;;;;;;;;;;;10.40;99.90;;;;;;7324874;19;11348;-82
2023/09/24 03:03:05;;;;;;;;;;;10.40;99.90;;;;;;7322278;19;9897;-81
2023/09/24 03:05:54;;;;;;;;;;;10.40;99.90;;;;;;7322289;19;9249;-82
2023/09/24 03:08:26;;;;;;;;;;;10.40;99.90;;;;;;7323605;19;9255;-81
2023/09/24 03:10:55;;;;;;;;;;;10.40;99.90;;;;;;7323556;19;9521;-81
2023/09/24 03:13:24;;;;;;;;;;;10.40;99.90;;;;;;7323322;19;9260;-82
2023/09/24 03:15:53;;;;;;;;;;;10.40;99.90;;;;;;7321858;19;10394;-81
2023/09/24 03:18:22;;;;;;;;;;;10.30;99.90;;;;;;7321774;19;9417;-81
2023/09/24 03:20:51;;;;;;;;;;;10.30;99.90;;;;;;7322575;19;9265;-81
2023/09/24 03:23:20;;;;;;;;;;;10.30;99.90;;;;;;7323362;19;9187;-81
2023/09/24 03:25:52;;;;;;;;;;;10.20;99.90;;;;;;7320582;19;9461;-82
2023/09/24 03:28:21;;;;;;;;;;;10.20;99.90;;;;;;7323454;19;9250;-81
2023/09/24 03:30:50;;;;;;;;;;;10.20;99.90;;;;;;7322421;19;9110;-82
2023/09/24 03:33:19;;;;;;;;;;;10.30;99.90;;;;;;7322454;19;9192;-82
2023/09/24 03:35:49;;;;;;;;;;;10.20;99.90;;;;;;7322780;19;9258;-82
2023/09/24 03:38:18;;;;;;;;;;;10.20;99.90;;;;;;7323271;19;9170;-82
2023/09/24 03:40:47;;;;;;;;;;;10.20;99.90;;;;;;7321326;19;9493;-81
2023/09/24 03:43:18;;;;;;;;;;;10.30;99.90;;;;;;7322398;19;9168;-82
2023/09/24 03:45:47;;;;;;;;;;;10.40;99.90;;;;;;7322378;19;10603;-82
2023/09/24 03:48:16;;;;;;;;;;;10.50;99.90;;;;;;7321925;19;9645;-82
2023/09/24 03:50:45;;;;;;;;;;;10.60;99.90;;;;;;7321931;19;8945;-82
2023/09/24 03:53:15;;;;;;;;;;;10.60;99.90;;;;;;7321983;19;9359;-82
2023/09/24 03:55:45;;;;;;;;;;;10.60;99.90;;;;;;7318780;19;9414;-82
2023/09/24 03:58:15;;;;;;;;;;;10.60;99.90;;;;;;7320955;19;9190;-82
2023/09/24 04:00:46;;;;;;;;;;;10.60;99.90;;;;;;7321170;19;9491;-81
2023/09/24 04:03:18;;;;;;;;;;;10.60;99.90;;;;;;7320202;19;9212;-81
2023/09/24 04:05:48;;;;;;;;;;;10.60;99.90;;;;;;7319944;19;9327;-81
2023/09/24 04:08:17;;;;;;;;;;;10.60;99.90;;;;;;7319750;19;12054;-82
2023/09/24 04:10:47;;;;;;;;;;;10.60;99.90;;;;;;7321481;19;10334;-82
2023/09/24 04:13:16;;;;;;;;;;;10.60;99.90;;;;;;7321595;19;9278;-81
2023/09/24 04:15:47;;;;;;;;;;;10.70;99.90;;;;;;7320921;19;9253;-82
2023/09/24 04:18:17;;;;;;;;;;;10.70;99.90;;;;;;7321244;19;9337;-82
2023/09/24 04:20:46;;;;;;;;;;;10.60;99.90;;;;;;7322090;19;9533;-82
2023/09/24 04:23:16;;;;;;;;;;;10.60;99.90;;;;;;7322447;19;9016;-81
2023/09/24 04:25:45;;;;;;;;;;;10.50;99.90;;;;;;7319475;19;8945;-81
2023/09/24 04:28:35;;;;;;;;;;;10.60;99.90;;;;;;7319320;19;9170;-82
2023/09/24 04:31:07;;;;;;;;;;;10.50;99.90;;;;;;7320490;19;10266;-81
2023/09/24 04:33:36;;;;;;;;;;;10.60;99.90;;;;;;7322522;19;10629;-81
2023/09/24 04:36:05;;;;;;;;;;;10.60;99.90;;;;;;7321983;19;9186;-81
2023/09/24 04:38:34;;;;;;;;;;;10.60;99.90;;;;;;7320670;19;10331;-81
2023/09/24 04:41:03;;;;;;;;;;;10.70;99.90;;;;;;7320999;19;9474;-81
2023/09/24 04:43:33;;;;;;;;;;;10.70;99.90;;;;;;7325007;19;9205;-81
2023/09/24 04:46:08;;;;;;;;;;;10.70;99.90;;;;;;7326553;19;9483;-81
2023/09/24 04:48:37;;;;;;;;;;;10.70;99.90;;;;;;7327480;19;9332;-81
2023/09/24 04:51:06;;;;;;;;;;;10.70;99.90;;;;;;7326910;19;9241;-81
2023/09/24 04:53:35;;;;;;;;;;;10.60;99.90;;;;;;7326778;19;9248;-81
2023/09/24 04:56:09;;;;;;;;;;;10.70;99.90;;;;;;7323768;19;9212;-81
2023/09/24 04:58:38;;;;;;;;;;;10.60;99.90;;;;;;7326399;19;9265;-81
2023/09/24 05:01:10;;;;;;;;;;;10.50;99.90;;;;;;7327312;19;10151;-82
2023/09/24 05:03:42;;;;;;;;;;;10.60;99.90;;;;;;7326211;19;9416;-81
2023/09/24 05:06:11;;;;;;;;;;;10.60;99.90;;;;;;7325454;19;9187;-81
2023/09/24 05:08:40;;;;;;;;;;;10.60;99.90;;;;;;7326209;19;9301;-81
2023/09/24 05:11:12;;;;;;;;;;;10.60;99.90;;;;;;7326792;19;9490;-81
2023/09/24 05:13:41;;;;;;;;;;;10.70;99.90;;;;;;7327428;19;10182;-82
2023/09/24 05:16:15;;;;;;;;;;;10.70;99.90;;;;;;7326562;19;9230;-81
2023/09/24 05:18:44;;;;;;;;;;;10.80;99.90;;;;;;7327274;19;9205;-81
2023/09/24 05:21:18;;;;;;;;;;;10.90;99.90;;;;;;7327952;19;9330;-81
2023/09/24 05:23:48;;;;;;;;;;;10.90;99.90;;;;;;7325915;19;9541;-81
2023/09/24 05:26:17;;;;;;;;;;;10.90;99.90;;;;;;7327825;19;9237;-81
2023/09/24 05:28:46;;;;;;;;;;;11.00;99.90;;;;;;7327175;19;9157;-81
2023/09/24 05:31:18;;;;;;;;;;;11.00;99.90;;;;;;7327383;19;9162;-81
2023/09/24 05:33:47;;;;;;;;;;;11.20;99.90;;;;;;7326561;19;9325;-81
2023/09/24 05:36:16;;;;;;;;;;;11.20;99.90;;;;;;7325209;19;9419;-81
2023/09/24 05:38:45;;;;;;;;;;;11.30;99.90;;;;;;7326002;19;9578;-81
2023/09/24 05:41:16;;;;;;;;;;;11.40;99.90;;;;;;7324696;19;9312;-81
2023/09/24 05:43:47;;;;;;;;;;;11.30;99.90;;;;;;7325353;19;8944;-81
2023/09/24 05:46:18;;;;;;;;;;;11.30;99.90;;;;;;7324998;19;9153;-81
2023/09/24 05:48:47;;;;;;;;;;;11.40;99.90;;;;;;7325398;19;9518;-81
2023/09/24 05:51:16;;;;;;;;;;;11.40;99.90;;;;;;7325195;19;10342;-81
2023/09/24 05:53:45;;;;;;;;;;;11.40;99.90;;;;;;7324715;19;11935;-81
2023/09/24 05:56:14;;;;;;;;;;;11.30;99.90;;;;;;7322238;19;9191;-81
2023/09/24 05:58:43;;;;;;;;;;;11.30;99.90;;;;;;7325229;19;9620;-81
2023/09/24 06:01:19;;;;;;;;;;;11.30;99.90;;;;;;7325404;19;9420;-81
2023/09/24 06:03:47;;;;;;;;;;;11.30;99.90;;;;;;7325109;19;9006;-81
2023/09/24 06:06:17;;;;;;;;;;;11.30;99.90;;;;;;7324476;19;9369;-81
2023/09/24 06:08:46;;;;;;;;;;;11.40;99.90;;;;;;7324682;19;9238;-81
2023/09/24 06:11:35;;;;;;;;;;;11.50;99.90;;;;;;7323769;19;9210;-81
2023/09/24 06:14:08;;;;;;;;;;;11.60;99.90;;;;;;7324258;19;10346;-81
2023/09/24 06:17:00;;;;;;;;;;;11.60;99.90;;;;;;7323598;19;9178;-81
2023/09/24 06:19:29;;;;;;;;;;;11.60;99.90;;;;;;7324387;19;9619;-81
2023/09/24 06:21:57;;;;;;;;;;;11.60;99.90;;;;;;7325450;19;9462;-81
2023/09/24 06:24:29;;;;;;;;;;;11.60;99.90;;;;;;7323797;19;10731;-81
2023/09/24 06:26:58;;;;;;;;;;;11.50;99.90;;;;;;7322496;19;9442;-81
2023/09/24 06:29:27;;;;;;;;;;;11.50;99.90;;;;;;7325315;19;10687;-82
2023/09/24 06:31:59;;;;;;;;;;;11.60;99.90;;;;;;7323704;19;9136;-81
2023/09/24 06:34:28;;;;;;;;;;;11.60;99.90;;;;;;7323853;19;9294;-82
2023/09/24 06:36:57;;;;;;;;;;;11.50;99.90;;;;;;7324447;19;9238;-81
2023/09/24 06:39:25;;;;;;;;;;;11.50;99.90;;;;;;7323775;19;10900;-81
2023/09/24 06:41:54;;;;;;;;;;;11.40;99.90;;;;;;7325375;19;9465;-82
2023/09/24 06:44:25;;;;;;;;;;;11.60;99.90;;;;;;7322890;19;9250;-81
2023/09/24 06:46:54;;;;;;;;;;;11.60;99.90;;;;;;7323991;19;9233;-81
2023/09/24 06:49:26;;;;;;;;;;;11.60;99.90;;;;;;7325059;19;9140;-81
2023/09/24 06:51:55;;;;;;;;;;;11.70;99.90;;;;;;7326271;19;9503;-81
2023/09/24 06:54:24;;;;;;;;;;;11.70;99.90;;;;;;7324282;19;9506;-81
2023/09/24 06:56:53;;;;;;;;;;;11.80;99.90;;;;;;7323276;19;9136;-81
2023/09/24 06:59:22;;;;;;;;;;;11.90;99.90;;;;;;7322506;19;9279;-82
2023/09/24 07:01:51;;;;;;;;;;;11.90;99.90;;;;;;7323204;19;8944;-81
2023/09/24 07:04:20;;;;;;;;;;;12.00;99.90;;;;;;7321247;19;11243;-81
2023/09/24 07:06:54;;;;;;;;;;;12.20;99.90;;;;;;7323661;19;9075;-81
2023/09/24 07:09:23;;;;;;;;;;;12.20;99.90;;;;;;7323350;19;9262;-82
2023/09/24 07:11:52;;;;;;;;;;;12.30;99.90;;;;;;7322609;19;9342;-82
2023/09/24 07:14:21;;;;;;;;;;;12.50;99.90;;;;;;7322357;19;9222;-81
2023/09/24 07:16:50;;;;;;;;;;;12.90;99.90;;;;;;7323300;19;11438;-81
2023/09/24 07:19:19;;;;;;;;;;;13.40;99.90;;;;;;7322250;19;9780;-82
2023/09/24 07:21:52;;;;;;;;;;;13.90;99.90;;;;;;7323908;19;9194;-82
2023/09/24 07:24:23;;;;;;;;;;;14.40;99.90;;;;;;7321271;19;9281;-81
2023/09/24 07:26:52;;;;;;;;;;;14.90;99.90;;;;;;7321499;19;10134;-82
2023/09/24 07:29:22;;;;;;;;;;;15.10;99.90;;;;;;7322416;19;8997;-82
2023/09/24 07:31:51;;;;;;;;;;;15.30;99.90;;;;;;7323184;19;9633;-82
2023/09/24 07:34:20;;;;;;;;;;;15.20;99.90;;;;;;7322365;19;9286;-82
2023/09/24 07:37:11;;;;;;;;;;;15.20;99.90;;;;;;7321489;19;9221;-82
2023/09/24 07:39:40;;;;;;;;;;;15.30;99.90;;;;;;7321649;19;9542;-82
2023/09/24 07:42:09;;;;;;;;;;;15.50;99.90;;;;;;7322244;19;9166;-82
2023/09/24 07:44:38;;;;;;;;;;;15.50;99.90;;;;;;7322043;19;9170;-81
2023/09/24 07:47:07;;;;;;;;;;;15.70;99.90;;;;;;7321651;19;9459;-82
2023/09/24 07:49:36;;;;;;;;;;;15.70;99.90;;;;;;7322322;19;9262;-81
2023/09/24 07:52:06;;;;;;;;;;;15.80;99.90;;;;;;7321531;19;10339;-81
2023/09/24 07:54:38;;;;;;;;;;;15.80;99.90;;;;;;7320399;19;10146;-82
2023/09/24 07:57:07;;;;;;;;;;;15.70;99.90;;;;;;7321130;19;8944;-82
2023/09/24 07:59:36;;;;;;;;;;;15.80;99.90;;;;;;7320834;19;8945;-82
2023/09/24 08:02:05;;;;;;;;;;;15.80;99.90;;;;;;7320860;19;9575;-82
2023/09/24 08:04:34;;;;;;;;;;;15.80;99.90;;;;;;7321447;19;9178;-82
2023/09/24 08:07:03;;;;;;;;;;;15.80;99.90;;;;;;7317813;19;9329;-82
2023/09/24 08:09:32;;;;;;;;;;;15.60;99.90;;;;;;7320475;19;9277;-82
2023/09/24 08:12:04;;;;;;;;;;;15.70;99.90;;;;;;7322859;19;9253;-82
2023/09/24 08:14:33;;;;;;;;;;;15.50;99.90;;;;;;7319767;19;9588;-82
2023/09/24 08:17:02;;;;;;;;;;;15.50;99.90;;;;;;7318210;19;9478;-82
2023/09/24 08:19:32;;;;;;;;;;;15.50;99.90;;;;;;7320961;19;9284;-82
2023/09/24 08:22:01;;;;;;;;;;;15.50;99.90;;;;;;7321639;19;9595;-82
2023/09/24 08:24:30;;;;;;;;;;;15.40;99.90;;;;;;7318738;19;9217;-82
2023/09/24 08:27:03;;;;;;;;;;;15.50;99.90;;;;;;7317406;19;10633;-82
2023/09/24 08:29:32;;;;;;;;;;;15.50;99.90;;;;;;7321303;19;9313;-82
2023/09/24 08:32:01;;;;;;;;;;;15.60;99.90;;;;;;7321785;19;9291;-82
2023/09/24 08:34:29;;;;;;;;;;;15.70;99.90;;;;;;7316707;19;11934;-82
2023/09/24 08:36:59;;;;;;;;;;;15.70;99.90;;;;;;7320676;19;9369;-82
2023/09/24 08:39:28;;;;;;;;;;;15.70;99.90;;;;;;7320507;19;9494;-82
2023/09/24 08:41:57;;;;;;;;;;;15.70;99.90;;;;;;7319809;19;9208;-82
2023/09/24 08:44:32;;;;;;;;;;;15.80;99.90;;;;;;7319686;19;9258;-82
2023/09/24 08:47:03;;;;;;;;;;;15.90;99.90;;;;;;7320921;19;9158;-82
2023/09/24 08:49:33;;;;;;;;;;;15.90;99.90;;;;;;7320677;19;9549;-82
2023/09/24 08:52:03;;;;;;;;;;;16.00;99.90;;;;;;7320823;19;8996;-82
2023/09/24 08:54:37;;;;;;;;;;;16.10;99.90;;;;;;7320715;19;9209;-82
2023/09/24 08:57:06;;;;;;;;;;;16.20;99.90;;;;;;7320169;19;9214;-82
2023/09/24 08:59:38;;;;;;;;;;;16.30;99.90;;;;;;7319411;19;9550;-82
2023/09/24 09:02:07;;;;;;;;;;;16.50;99.90;;;;;;7319914;19;9491;-82
2023/09/24 09:04:56;;;;;;;;;;;16.50;99.90;;;;;;7317399;19;9354;-82
2023/09/24 09:07:25;;;;;;;;;;;16.70;99.90;;;;;;7324184;19;9194;-82
2023/09/24 09:09:56;;;;;;;;;;;16.70;99.90;;;;;;7334558;19;9408;-82
2023/09/24 09:12:27;;;;;;;;;;;16.80;99.90;;;;;;7329887;19;9102;-82
2023/09/24 09:14:59;;;;;;;;;;;16.90;99.90;;;;;;7319923;19;10366;-82
2023/09/24 09:17:42;;;;;;;;;;;16.90;99.90;;;;;;7316475;19;9406;-82
2023/09/24 09:20:12;;;;;;;;;;;16.90;99.90;;;;;;7319628;19;9283;-82
2023/09/24 09:22:49;;;;;;;;;;;17.10;99.90;;;;;;7320029;19;9142;-82
2023/09/24 09:25:18;;;;;;;;;;;17.10;99.90;;;;;;7316266;19;9487;-82
2023/09/24 09:27:50;;;;;;;;;;;17.10;99.90;;;;;;7321820;19;9158;-82
2023/09/24 09:30:20;;;;;;;;;;;17.20;99.90;;;;;;7327019;19;10135;-82
2023/09/24 09:32:51;;;;;;;;;;;17.50;99.90;;;;;;7326329;19;9308;-82
2023/09/24 09:35:20;;;;;;;;;;;17.50;99.90;;;;;;7322524;19;9227;-82
2023/09/24 09:37:49;;;;;;;;;;;17.50;99.90;;;;;;7323401;19;11039;-82
2023/09/24 09:40:18;;;;;;;;;;;17.60;99.90;;;;;;7326033;19;9215;-82
2023/09/24 09:42:53;;;;;;;;;;;17.80;99.90;;;;;;7326364;19;9273;-82
2023/09/24 09:45:26;;;;;;;;;;;17.90;99.90;;;;;;7326055;19;9366;-82
2023/09/24 09:48:03;;;;;;;;;;;17.90;99.90;;;;;;7323593;19;10947;-82
2023/09/24 09:50:36;;;;;;;;;;;17.80;99.90;;;;;;7324946;19;9437;-82
2023/09/24 09:53:10;;;;;;;;;;;17.90;99.90;;;;;;7325295;19;9163;-82
2023/09/24 09:55:42;;;;;;;;;;;18.10;99.90;;;;;;7325053;19;9239;-82
2023/09/24 09:58:12;;;;;;;;;;;18.10;99.90;;;;;;7325180;19;9214;-81
2023/09/24 10:00:44;;;;;;;;;;;18.10;99.90;;;;;;7326569;19;9332;-82
2023/09/24 10:03:15;;;;;;;;;;;18.30;99.90;;;;;;7321641;19;10616;-82
2023/09/24 10:05:45;;;;;;;;;;;18.40;99.90;;;;;;7324161;19;10386;-83
2023/09/24 10:08:42;;;;;;;;;;;18.50;99.90;;;;;;7324332;19;10697;-82
2023/09/24 10:11:13;;;;;;;;;;;18.60;99.90;;;;;;7325432;19;10390;-83
2023/09/24 10:13:47;;;;;;;;;;;18.50;98.20;;;;;;7325558;19;9297;-82
2023/09/24 10:16:35;;;;;;;;;;;18.50;98.20;;;;;;7322945;19;11021;-83
2023/09/24 10:19:07;;;;;;;;;;;18.60;97.20;;;;;;7324670;19;9242;-82
2023/09/24 10:21:38;;;;;;;;;;;18.70;99.60;;;;;;7325109;19;9422;-82
2023/09/24 10:24:50;;;;;;;;;;;18.60;97.60;;;;;;7322832;19;9333;-82
2023/09/24 10:27:26;;;;;;;;;;;18.70;96.00;;;;;;7325031;19;8993;-83
2023/09/24 10:30:10;;;;;;;;;;;18.90;97.60;;;;;;7325674;19;9262;-83
2023/09/24 10:32:51;;;;;;;;;;;18.90;97.10;;;;;;7324507;19;9156;-82
2023/09/24 10:35:22;;;;;;;;;;;18.90;97.10;;;;;;7323007;19;9543;-82
2023/09/24 10:38:07;;;;;;;;;;;19.00;94.70;;;;;;7323527;19;9397;-83
2023/09/24 10:40:37;;;;;;;;;;;19.10;96.50;;;;;;7322087;19;9567;-83
2023/09/24 10:43:15;;;;;;;;;;;19.10;95.70;;;;;;7320205;19;10973;-83
2023/09/24 10:45:44;;;;;;;;;;;19.30;96.10;;;;;;7323752;19;9214;-83
2023/09/24 10:48:17;;;;;;;;;;;19.20;90.80;;;;;;7324391;19;9248;-83
2023/09/24 10:50:47;;;;;;;;;;;19.20;92.60;;;;;;7324132;19;9554;-83
2023/09/24 10:53:21;;;;;;;;;;;19.30;93.30;;;;;;7324230;19;9393;-83
2023/09/24 10:55:50;;;;;;;;;;;19.30;93.80;;;;;;7324657;19;9110;-82
2023/09/24 10:58:19;;;;;;;;;;;19.40;94.30;;;;;;7323522;19;9223;-82
2023/09/24 11:00:53;;;;;;;;;;;19.40;92.70;;;;;;7324028;19;9231;-83
2023/09/24 11:03:25;;;;;;;;;;;19.30;92.00;;;;;;7322800;19;9187;-83
2023/09/24 11:05:54;;;;;;;;;;;19.50;95.10;;;;;;7324144;19;9221;-83
2023/09/24 11:08:31;;;;;;;;;;;19.60;94.80;;;;;;7326268;19;9263;-82
2023/09/24 11:11:00;;;;;;;;;;;19.70;94.40;;;;;;7321831;19;8944;-82
2023/09/24 11:13:29;;;;;;;;;;;19.70;93.70;;;;;;7324796;19;9274;-82
2023/09/24 11:15:58;;;;;;;;;;;19.60;92.80;;;;;;7323171;19;9124;-82
2023/09/24 11:18:32;;;;;;;;;;;19.70;93.30;;;;;;7323786;19;9120;-82
2023/09/24 11:21:01;;;;;;;;;;;19.70;93.70;;;;;;7324315;19;9439;-83
2023/09/24 11:23:38;;;;;;;;;;;19.80;93.40;;;;;;7327619;19;9482;-83
2023/09/24 11:26:07;;;;;;;;;;;20.00;93.20;;;;;;7322329;19;9297;-83
2023/09/24 11:28:36;;;;;;;;;;;20.00;92.60;;;;;;7323713;19;9254;-83
2023/09/24 11:31:26;;;;;;;;;;;20.00;91.60;;;;;;7320947;19;9335;-83
2023/09/24 11:33:59;;;;;;;;;;;20.00;91.20;;;;;;7320544;19;9482;-83
2023/09/24 11:36:28;;;;;;;;;;;20.00;91.70;;;;;;7321956;19;9483;-83
2023/09/24 11:39:03;;;;;;;;;;;20.00;91.60;;;;;;7323815;19;9256;-83
2023/09/24 11:41:32;;;;;;;;;;;20.10;92.30;;;;;;7322493;19;9235;-82
2023/09/24 11:44:01;;;;;;;;;;;20.10;91.90;;;;;;7321935;19;10278;-83
2023/09/24 11:46:32;;;;;;;;;;;20.10;90.00;;;;;;7321944;19;9335;-82
2023/09/24 11:49:04;;;;;;;;;;;20.20;91.20;;;;;;7321903;19;9209;-82
2023/09/24 11:51:35;;;;;;;;;;;20.10;90.10;;;;;;7322696;19;9293;-80
2023/09/24 11:54:05;;;;;;;;;;;20.10;90.90;;;;;;7321802;19;9325;-80
2023/09/24 11:56:34;;;;;;;;;;;20.30;90.80;;;;;;7321852;19;9355;-80
2023/09/24 11:59:03;;;;;;;;;;;20.30;90.60;;;;;;7322572;19;9214;-80
2023/09/24 12:01:32;;;;;;;;;;;20.40;90.30;;;;;;7322590;19;9174;-80
2023/09/24 12:04:04;;;;;;;;;;;20.30;87.40;;;;;;7318594;19;9167;-80
2023/09/24 12:06:35;;;;;;;;;;;20.30;89.00;;;;;;7320232;19;9387;-80
2023/09/24 12:09:05;;;;;;;;;;;20.30;90.00;;;;;;7321994;19;9616;-80
2023/09/24 12:11:33;;;;;;;;;;;20.30;90.50;;;;;;7321746;19;9242;-80
2023/09/24 12:14:02;;;;;;;;;;;20.30;88.20;;;;;;7322067;19;9217;-80
2023/09/24 12:16:35;;;;;;;;;;;20.30;87.40;;;;;;7320220;19;9633;-80
2023/09/24 12:19:06;;;;;;;;;;;20.30;88.20;;;;;;7321940;19;9200;-80
2023/09/24 12:21:35;;;;;;;;;;;20.40;87.90;;;;;;7322202;19;9417;-80
2023/09/24 12:24:04;;;;;;;;;;;20.30;86.00;;;;;;7316971;19;9285;-81
2023/09/24 12:26:33;;;;;;;;;;;20.40;89.50;;;;;;7321423;19;9139;-82
2023/09/24 12:29:02;;;;;;;;;;;20.50;87.30;;;;;;7319784;19;9151;-81
2023/09/24 12:31:32;;;;;;;;;;;20.40;89.80;;;;;;7322493;19;9295;-82
2023/09/24 12:34:01;;;;;;;;;;;20.30;85.00;;;;;;7318259;19;10627;-82
2023/09/24 12:36:34;;;;;;;;;;;20.30;87.10;;;;;;7320251;19;9426;-81
2023/09/24 12:39:03;;;;;;;;;;;20.30;87.00;;;;;;7320697;19;9346;-82
2023/09/24 12:41:32;;;;;;;;;;;20.30;87.10;;;;;;7320649;19;9243;-81
2023/09/24 12:44:01;;;;;;;;;;;20.20;85.20;;;;;;7321653;19;9462;-82
2023/09/24 12:46:30;;;;;;;;;;;20.20;83.20;;;;;;7320436;19;9398;-81
2023/09/24 12:49:02;;;;;;;;;;;20.30;86.50;;;;;;7319958;19;9333;-82
2023/09/24 12:51:34;;;;;;;;;;;20.30;87.70;;;;;;7320129;19;9174;-81
2023/09/24 12:54:03;;;;;;;;;;;20.30;84.10;;;;;;7320107;19;8944;-82
2023/09/24 12:56:32;;;;;;;;;;;20.30;87.10;;;;;;7320762;19;9185;-82
2023/09/24 12:59:21;;;;;;;;;;;20.30;87.80;;;;;;7318594;19;9191;-82
2023/09/24 13:01:53;;;;;;;;;;;20.30;84.70;;;;;;7320505;19;9241;-82
2023/09/24 13:04:22;;;;;;;;;;;20.40;85.90;;;;;;7322982;19;9190;-82
2023/09/24 13:06:53;;;;;;;;;;;20.40;88.30;;;;;;7326865;19;9240;-82
2023/09/24 13:09:22;;;;;;;;;;;20.50;89.70;;;;;;7325469;19;8944;-82
2023/09/24 13:11:52;;;;;;;;;;;20.70;88.40;;;;;;7326630;19;9237;-82
2023/09/24 13:14:21;;;;;;;;;;;20.60;90.00;;;;;;7326345;19;9464;-82
2023/09/24 13:16:50;;;;;;;;;;;20.60;90.20;;;;;;7326348;19;9328;-82
2023/09/24 13:19:19;;;;;;;;;;;20.50;88.40;;;;;;7326913;19;9215;-82
2023/09/24 13:21:48;;;;;;;;;;;20.50;87.40;;;;;;7326926;19;9327;-81
2023/09/24 13:24:20;;;;;;;;;;;20.30;87.30;;;;;;7324100;19;9227;-82
2023/09/24 13:26:49;;;;;;;;;;;20.10;84.90;;;;;;7326771;19;9209;-82
2023/09/24 13:29:18;;;;;;;;;;;20.10;88.30;;;;;;7327773;19;9216;-82
2023/09/24 13:31:49;;;;;;;;;;;19.90;86.20;;;;;;7327580;19;10323;-82
2023/09/24 13:34:18;;;;;;;;;;;19.80;85.10;;;;;;7328150;19;9449;-82
2023/09/24 13:36:47;;;;;;;;;;;19.80;86.10;;;;;;7331104;19;9258;-81
2023/09/24 13:39:16;;;;;;;;;;;19.90;87.60;;;;;;7329029;19;10633;-81
2023/09/24 13:41:47;;;;;;;;;;;19.90;88.10;;;;;;7326184;19;9319;-81
2023/09/24 13:44:17;;;;;;;;;;;20.00;90.70;;;;;;7324856;19;9250;-82
2023/09/24 13:46:47;;;;;;;;;;;19.90;85.70;;;;;;7326009;19;9214;-82
2023/09/24 13:49:16;;;;;;;;;;;19.80;85.40;;;;;;7325450;19;9548;-81
2023/09/24 13:51:45;;;;;;;;;;;19.80;84.30;;;;;;7325023;19;9256;-81
2023/09/24 13:54:14;;;;;;;;;;;19.90;89.30;;;;;;7325199;19;10398;-82
2023/09/24 13:56:43;;;;;;;;;;;19.90;87.20;;;;;;7325417;19;9132;-81
2023/09/24 13:59:15;;;;;;;;;;;20.10;90.10;;;;;;7324691;19;9250;-81
2023/09/24 14:01:44;;;;;;;;;;;20.20;87.70;;;;;;7325461;19;9309;-82
2023/09/24 14:04:13;;;;;;;;;;;20.20;90.00;;;;;;7321353;19;9119;-81
2023/09/24 14:06:44;;;;;;;;;;;20.10;86.70;;;;;;7324699;19;9182;-82
2023/09/24 14:14:38;;;;;;;;;;;20.00;88.10;;;;;;7321441;19;9316;-81
2023/09/24 14:17:08;;;;;;;;;;;20.10;88.60;;;;;;7325812;19;9140;-82
2023/09/24 14:19:37;;;;;;;;;;;20.30;87.80;;;;;;7324967;19;9475;-81
2023/09/24 14:22:05;;;;;;;;;;;20.30;88.30;;;;;;7324697;19;10138;-81
2023/09/24 14:24:35;;;;;;;;;;;20.40;86.80;;;;;;7322135;19;9311;-82
2023/09/24 14:27:07;;;;;;;;;;;20.30;80.20;;;;;;7324694;19;9159;-81
2023/09/24 14:29:39;;;;;;;;;;;20.20;82.90;;;;;;7324710;19;9273;-81
2023/09/24 14:32:09;;;;;;;;;;;20.30;82.50;;;;;;7325049;19;9317;-82
2023/09/24 14:34:38;;;;;;;;;;;20.40;88.20;;;;;;7320746;19;10155;-81
2023/09/24 14:37:07;;;;;;;;;;;20.40;86.70;;;;;;7324436;19;9483;-81
2023/09/24 14:39:36;;;;;;;;;;;20.40;87.50;;;;;;7321997;19;9458;-82
2023/09/24 14:42:05;;;;;;;;;;;20.40;86.00;;;;;;7324273;19;9266;-81
2023/09/24 14:44:36;;;;;;;;;;;20.40;83.20;;;;;;7324546;19;10341;-81
2023/09/24 14:47:07;;;;;;;;;;;20.40;86.80;;;;;;7324394;19;10163;-81
2023/09/24 14:49:36;;;;;;;;;;;20.40;84.80;;;;;;7324134;19;9509;-81
2023/09/24 14:52:06;;;;;;;;;;;20.50;88.00;;;;;;7323903;19;9399;-81
2023/09/24 14:54:35;;;;;;;;;;;20.40;85.80;;;;;;7324545;19;9261;-81
2023/09/24 14:57:04;;;;;;;;;;;20.40;84.90;;;;;;7322788;19;9171;-81